Terminal Aerodrome Forecast
Issued by NWS

Home | Current Version | Previous Version | Text Only | Print | Product List | Glossary On
Versions: 1 2 3 4 5 6 7 8 9 10 11 12 13 14 15 16 17 18 19 20 21 22 23 24 25 26 27 28 29 30 31 32 33
000
FTUS41 KOKX 282141 AAB
TAFSWF
TAF AMD
KSWF 282141Z 2822/2924 09012G20KT P6SM SCT025 BKN035
     FM290000 09012KT P6SM -DZ OVC015
     FM291100 08015G22KT 5SM -RA SCT006 OVC010=

USA.gov is the U.S. government's official web portal to all federal, state and local government web resources and services.